sensor_id;sensor_type;location;lat;lon;timestamp;P1;durP1;ratioP1;P2;durP2;ratioP2
4933;SDS011;2482;49.154;8.254;2023-07-02T00:00:09;7.00;;;2.70;;
4933;SDS011;2482;49.154;8.254;2023-07-02T00:02:37;3.43;;;2.47;;
4933;SDS011;2482;49.154;8.254;2023-07-02T00:05:04;6.90;;;2.40;;
4933;SDS011;2482;49.154;8.254;2023-07-02T00:07:33;3.23;;;2.30;;
4933;SDS011;2482;49.154;8.254;2023-07-02T00:10:03;2.50;;;2.30;;
4933;SDS011;2482;49.154;8.254;2023-07-02T00:12:30;3.83;;;2.60;;
4933;SDS011;2482;49.154;8.254;2023-07-02T00:14:58;2.70;;;2.33;;
4933;SDS011;2482;49.154;8.254;2023-07-02T00:17:25;2.80;;;2.33;;
4933;SDS011;2482;49.154;8.254;2023-07-02T00:19:52;4.87;;;2.40;;
4933;SDS011;2482;49.154;8.254;2023-07-02T00:22:19;3.20;;;2.50;;
4933;SDS011;2482;49.154;8.254;2023-07-02T00:24:47;5.47;;;2.77;;
4933;SDS011;2482;49.154;8.254;2023-07-02T00:27:16;3.87;;;3.00;;
4933;SDS011;2482;49.154;8.254;2023-07-02T00:29:43;2.60;;;2.40;;
4933;SDS011;2482;49.154;8.254;2023-07-02T00:32:10;2.90;;;2.50;;
4933;SDS011;2482;49.154;8.254;2023-07-02T00:34:37;3.00;;;2.53;;
4933;SDS011;2482;49.154;8.254;2023-07-02T00:37:04;3.50;;;2.60;;
4933;SDS011;2482;49.154;8.254;2023-07-02T00:39:31;3.93;;;2.40;;
4933;SDS011;2482;49.154;8.254;2023-07-02T00:42:02;3.80;;;2.67;;
4933;SDS011;2482;49.154;8.254;2023-07-02T00:44:30;3.60;;;2.53;;
4933;SDS011;2482;49.154;8.254;2023-07-02T00:46:57;4.30;;;2.70;;
4933;SDS011;2482;49.154;8.254;2023-07-02T00:49:24;6.30;;;2.80;;
4933;SDS011;2482;49.154;8.254;2023-07-02T00:51:51;4.20;;;3.20;;
4933;SDS011;2482;49.154;8.254;2023-07-02T00:54:18;5.27;;;3.17;;
4933;SDS011;2482;49.154;8.254;2023-07-02T00:56:46;5.87;;;3.27;;
4933;SDS011;2482;49.154;8.254;2023-07-02T00:59:13;4.10;;;3.20;;
4933;SDS011;2482;49.154;8.254;2023-07-02T01:01:40;5.90;;;3.50;;
4933;SDS011;2482;49.154;8.254;2023-07-02T01:04:07;5.57;;;3.07;;
4933;SDS011;2482;49.154;8.254;2023-07-02T01:06:37;7.73;;;3.40;;
4933;SDS011;2482;49.154;8.254;2023-07-02T01:09:08;3.37;;;3.00;;
4933;SDS011;2482;49.154;8.254;2023-07-02T01:17:02;4.63;;;3.50;;
4933;SDS011;2482;49.154;8.254;2023-07-02T01:19:45;6.37;;;3.57;;
4933;SDS011;2482;49.154;8.254;2023-07-02T01:22:23;8.07;;;3.47;;
4933;SDS011;2482;49.154;8.254;2023-07-02T01:24:53;9.33;;;3.73;;
4933;SDS011;2482;49.154;8.254;2023-07-02T01:27:21;3.93;;;3.50;;
4933;SDS011;2482;49.154;8.254;2023-07-02T01:29:51;4.60;;;3.30;;
4933;SDS011;2482;49.154;8.254;2023-07-02T01:32:19;5.40;;;3.47;;
4933;SDS011;2482;49.154;8.254;2023-07-02T01:34:47;5.43;;;3.57;;
4933;SDS011;2482;49.154;8.254;2023-07-02T01:37:15;5.67;;;3.50;;
4933;SDS011;2482;49.154;8.254;2023-07-02T01:39:45;4.47;;;3.43;;
4933;SDS011;2482;49.154;8.254;2023-07-02T01:42:19;5.47;;;3.70;;
4933;SDS011;2482;49.154;8.254;2023-07-02T01:44:47;13.27;;;3.53;;
4933;SDS011;2482;49.154;8.254;2023-07-02T01:47:18;4.67;;;2.93;;
4933;SDS011;2482;49.154;8.254;2023-07-02T01:49:46;6.53;;;3.10;;
4933;SDS011;2482;49.154;8.254;2023-07-02T01:52:13;7.33;;;3.70;;
4933;SDS011;2482;49.154;8.254;2023-07-02T01:54:40;9.17;;;3.10;;
4933;SDS011;2482;49.154;8.254;2023-07-02T01:57:07;4.80;;;2.43;;
4933;SDS011;2482;49.154;8.254;2023-07-02T01:59:34;10.43;;;3.37;;
4933;SDS011;2482;49.154;8.254;2023-07-02T02:02:01;7.63;;;3.40;;
4933;SDS011;2482;49.154;8.254;2023-07-02T02:04:28;4.30;;;3.00;;
4933;SDS011;2482;49.154;8.254;2023-07-02T02:06:55;9.73;;;3.30;;
4933;SDS011;2482;49.154;8.254;2023-07-02T02:09:23;7.63;;;3.13;;
4933;SDS011;2482;49.154;8.254;2023-07-02T02:11:50;21.93;;;3.73;;
4933;SDS011;2482;49.154;8.254;2023-07-02T02:14:18;10.10;;;3.30;;
4933;SDS011;2482;49.154;8.254;2023-07-02T02:16:47;11.40;;;4.40;;
4933;SDS011;2482;49.154;8.254;2023-07-02T02:19:15;9.27;;;3.40;;
4933;SDS011;2482;49.154;8.254;2023-07-02T02:21:42;11.73;;;3.97;;
4933;SDS011;2482;49.154;8.254;2023-07-02T02:24:10;7.80;;;3.80;;
4933;SDS011;2482;49.154;8.254;2023-07-02T02:26:37;8.93;;;3.40;;
4933;SDS011;2482;49.154;8.254;2023-07-02T02:29:04;4.80;;;3.60;;
4933;SDS011;2482;49.154;8.254;2023-07-02T02:31:31;6.07;;;3.37;;
4933;SDS011;2482;49.154;8.254;2023-07-02T02:33:58;10.07;;;3.50;;
4933;SDS011;2482;49.154;8.254;2023-07-02T02:36:25;7.73;;;3.50;;
4933;SDS011;2482;49.154;8.254;2023-07-02T02:38:52;8.33;;;4.00;;
4933;SDS011;2482;49.154;8.254;2023-07-02T02:41:19;5.33;;;3.57;;
4933;SDS011;2482;49.154;8.254;2023-07-02T02:43:46;7.30;;;3.97;;
4933;SDS011;2482;49.154;8.254;2023-07-02T02:46:19;10.10;;;3.57;;
4933;SDS011;2482;49.154;8.254;2023-07-02T02:48:48;9.10;;;3.50;;
4933;SDS011;2482;49.154;8.254;2023-07-02T02:51:16;4.90;;;3.00;;
4933;SDS011;2482;49.154;8.254;2023-07-02T02:53:43;6.13;;;3.67;;
4933;SDS011;2482;49.154;8.254;2023-07-02T02:56:10;9.30;;;4.20;;
4933;SDS011;2482;49.154;8.254;2023-07-02T02:58:36;7.30;;;3.30;;
4933;SDS011;2482;49.154;8.254;2023-07-02T03:01:03;5.23;;;3.40;;
4933;SDS011;2482;49.154;8.254;2023-07-02T03:03:38;13.20;;;4.13;;
4933;SDS011;2482;49.154;8.254;2023-07-02T03:06:05;8.17;;;3.37;;
4933;SDS011;2482;49.154;8.254;2023-07-02T03:08:32;7.87;;;3.20;;
4933;SDS011;2482;49.154;8.254;2023-07-02T03:10:59;7.47;;;3.67;;
4933;SDS011;2482;49.154;8.254;2023-07-02T03:13:26;8.40;;;3.50;;
4933;SDS011;2482;49.154;8.254;2023-07-02T03:15:53;3.70;;;3.07;;
4933;SDS011;2482;49.154;8.254;2023-07-02T03:18:20;4.50;;;3.33;;
4933;SDS011;2482;49.154;8.254;2023-07-02T03:20:47;7.03;;;3.73;;
4933;SDS011;2482;49.154;8.254;2023-07-02T03:23:15;8.90;;;4.00;;
4933;SDS011;2482;49.154;8.254;2023-07-02T03:25:42;15.10;;;3.50;;
4933;SDS011;2482;49.154;8.254;2023-07-02T03:28:09;5.93;;;3.20;;
4933;SDS011;2482;49.154;8.254;2023-07-02T03:30:36;8.37;;;3.30;;
4933;SDS011;2482;49.154;8.254;2023-07-02T03:33:03;7.07;;;3.33;;
4933;SDS011;2482;49.154;8.254;2023-07-02T03:35:30;6.50;;;3.60;;
4933;SDS011;2482;49.154;8.254;2023-07-02T03:37:57;7.23;;;3.60;;
4933;SDS011;2482;49.154;8.254;2023-07-02T03:40:24;5.50;;;3.53;;
4933;SDS011;2482;49.154;8.254;2023-07-02T03:42:51;4.30;;;3.13;;
4933;SDS011;2482;49.154;8.254;2023-07-02T03:45:18;8.90;;;3.67;;
4933;SDS011;2482;49.154;8.254;2023-07-02T03:47:45;8.47;;;3.60;;
4933;SDS011;2482;49.154;8.254;2023-07-02T03:50:12;8.87;;;4.10;;
4933;SDS011;2482;49.154;8.254;2023-07-02T03:52:39;18.27;;;3.87;;
4933;SDS011;2482;49.154;8.254;2023-07-02T03:55:06;7.07;;;3.37;;
4933;SDS011;2482;49.154;8.254;2023-07-02T03:57:34;12.53;;;4.63;;
4933;SDS011;2482;49.154;8.254;2023-07-02T04:00:01;5.90;;;3.47;;
4933;SDS011;2482;49.154;8.254;2023-07-02T04:02:28;4.67;;;3.60;;
4933;SDS011;2482;49.154;8.254;2023-07-02T04:04:55;6.73;;;3.20;;
4933;SDS011;2482;49.154;8.254;2023-07-02T04:07:23;8.20;;;3.50;;
4933;SDS011;2482;49.154;8.254;2023-07-02T04:09:50;5.07;;;3.60;;
4933;SDS011;2482;49.154;8.254;2023-07-02T04:12:16;3.87;;;3.33;;
4933;SDS011;2482;49.154;8.254;2023-07-02T04:14:43;7.30;;;3.70;;
4933;SDS011;2482;49.154;8.254;2023-07-02T04:17:10;9.83;;;3.70;;
4933;SDS011;2482;49.154;8.254;2023-07-02T04:19:37;7.90;;;3.63;;
4933;SDS011;2482;49.154;8.254;2023-07-02T04:22:04;4.87;;;3.30;;
4933;SDS011;2482;49.154;8.254;2023-07-02T04:24:32;12.67;;;4.30;;
4933;SDS011;2482;49.154;8.254;2023-07-02T04:26:59;12.67;;;4.83;;
4933;SDS011;2482;49.154;8.254;2023-07-02T04:29:46;10.20;;;4.53;;
4933;SDS011;2482;49.154;8.254;2023-07-02T04:32:13;9.23;;;4.50;;
4933;SDS011;2482;49.154;8.254;2023-07-02T04:34:40;11.87;;;4.33;;
4933;SDS011;2482;49.154;8.254;2023-07-02T04:37:08;9.37;;;5.00;;
4933;SDS011;2482;49.154;8.254;2023-07-02T04:39:36;6.60;;;4.40;;
4933;SDS011;2482;49.154;8.254;2023-07-02T04:42:03;8.73;;;4.43;;
4933;SDS011;2482;49.154;8.254;2023-07-02T04:44:30;10.43;;;4.93;;
4933;SDS011;2482;49.154;8.254;2023-07-02T04:47:01;13.33;;;4.77;;
4933;SDS011;2482;49.154;8.254;2023-07-02T04:49:28;9.70;;;5.20;;
4933;SDS011;2482;49.154;8.254;2023-07-02T04:51:55;8.83;;;5.23;;
4933;SDS011;2482;49.154;8.254;2023-07-02T04:54:22;8.90;;;5.30;;
4933;SDS011;2482;49.154;8.254;2023-07-02T04:56:49;9.70;;;5.47;;
4933;SDS011;2482;49.154;8.254;2023-07-02T04:59:17;10.60;;;5.50;;
4933;SDS011;2482;49.154;8.254;2023-07-02T05:01:46;12.07;;;5.63;;
4933;SDS011;2482;49.154;8.254;2023-07-02T05:04:14;14.37;;;6.00;;
4933;SDS011;2482;49.154;8.254;2023-07-02T05:06:41;9.87;;;5.93;;
4933;SDS011;2482;49.154;8.254;2023-07-02T05:09:08;14.43;;;6.43;;
4933;SDS011;2482;49.154;8.254;2023-07-02T05:11:35;12.13;;;6.30;;
4933;SDS011;2482;49.154;8.254;2023-07-02T05:14:02;12.60;;;6.20;;
4933;SDS011;2482;49.154;8.254;2023-07-02T05:16:29;15.60;;;6.47;;
4933;SDS011;2482;49.154;8.254;2023-07-02T05:18:57;9.60;;;5.93;;
4933;SDS011;2482;49.154;8.254;2023-07-02T05:21:24;12.20;;;6.40;;
4933;SDS011;2482;49.154;8.254;2023-07-02T05:23:51;11.83;;;6.53;;
4933;SDS011;2482;49.154;8.254;2023-07-02T05:26:18;11.10;;;6.30;;
4933;SDS011;2482;49.154;8.254;2023-07-02T05:28:45;16.13;;;6.40;;
4933;SDS011;2482;49.154;8.254;2023-07-02T05:31:12;11.00;;;5.63;;
4933;SDS011;2482;49.154;8.254;2023-07-02T05:33:39;14.53;;;6.40;;
4933;SDS011;2482;49.154;8.254;2023-07-02T05:36:06;17.87;;;6.27;;
4933;SDS011;2482;49.154;8.254;2023-07-02T05:38:34;14.23;;;6.30;;
4933;SDS011;2482;49.154;8.254;2023-07-02T05:41:02;12.10;;;6.53;;
4933;SDS011;2482;49.154;8.254;2023-07-02T05:43:29;15.30;;;6.97;;
4933;SDS011;2482;49.154;8.254;2023-07-02T05:46:00;13.13;;;6.90;;
4933;SDS011;2482;49.154;8.254;2023-07-02T05:48:27;11.97;;;6.93;;
4933;SDS011;2482;49.154;8.254;2023-07-02T05:50:54;11.23;;;6.80;;
4933;SDS011;2482;49.154;8.254;2023-07-02T05:53:21;10.13;;;5.90;;
4933;SDS011;2482;49.154;8.254;2023-07-02T05:55:48;15.83;;;6.57;;
4933;SDS011;2482;49.154;8.254;2023-07-02T05:58:15;20.00;;;7.20;;
4933;SDS011;2482;49.154;8.254;2023-07-02T06:00:42;13.53;;;6.87;;
4933;SDS011;2482;49.154;8.254;2023-07-02T06:03:16;13.83;;;7.30;;
4933;SDS011;2482;49.154;8.254;2023-07-02T06:05:47;12.10;;;6.97;;
4933;SDS011;2482;49.154;8.254;2023-07-02T06:08:18;10.83;;;6.80;;
4933;SDS011;2482;49.154;8.254;2023-07-02T06:10:45;12.90;;;6.33;;
4933;SDS011;2482;49.154;8.254;2023-07-02T06:13:14;8.57;;;5.80;;
4933;SDS011;2482;49.154;8.254;2023-07-02T06:15:41;12.00;;;5.93;;
4933;SDS011;2482;49.154;8.254;2023-07-02T06:18:10;12.40;;;5.10;;
4933;SDS011;2482;49.154;8.254;2023-07-02T06:20:37;6.80;;;4.70;;
4933;SDS011;2482;49.154;8.254;2023-07-02T06:23:04;13.00;;;5.50;;
4933;SDS011;2482;49.154;8.254;2023-07-02T06:25:31;10.10;;;4.80;;
4933;SDS011;2482;49.154;8.254;2023-07-02T06:27:58;9.83;;;4.90;;
4933;SDS011;2482;49.154;8.254;2023-07-02T06:30:26;10.30;;;5.50;;
4933;SDS011;2482;49.154;8.254;2023-07-02T06:32:53;9.97;;;5.47;;
4933;SDS011;2482;49.154;8.254;2023-07-02T06:35:21;10.73;;;5.73;;
4933;SDS011;2482;49.154;8.254;2023-07-02T06:37:48;16.37;;;6.10;;
4933;SDS011;2482;49.154;8.254;2023-07-02T06:40:15;13.83;;;6.27;;
4933;SDS011;2482;49.154;8.254;2023-07-02T06:42:42;16.13;;;6.60;;
4933;SDS011;2482;49.154;8.254;2023-07-02T06:45:09;20.30;;;7.23;;
4933;SDS011;2482;49.154;8.254;2023-07-02T06:47:36;10.83;;;6.03;;
4933;SDS011;2482;49.154;8.254;2023-07-02T06:50:04;14.27;;;6.80;;
4933;SDS011;2482;49.154;8.254;2023-07-02T06:52:31;12.67;;;6.63;;
4933;SDS011;2482;49.154;8.254;2023-07-02T06:54:58;10.63;;;6.63;;
4933;SDS011;2482;49.154;8.254;2023-07-02T06:57:25;12.13;;;6.73;;
4933;SDS011;2482;49.154;8.254;2023-07-02T06:59:56;12.80;;;7.57;;
4933;SDS011;2482;49.154;8.254;2023-07-02T07:02:26;16.00;;;7.30;;
4933;SDS011;2482;49.154;8.254;2023-07-02T07:04:54;16.17;;;7.40;;
4933;SDS011;2482;49.154;8.254;2023-07-02T07:07:21;15.43;;;7.90;;
4933;SDS011;2482;49.154;8.254;2023-07-02T07:09:48;13.27;;;8.10;;
4933;SDS011;2482;49.154;8.254;2023-07-02T07:12:15;13.30;;;8.00;;
4933;SDS011;2482;49.154;8.254;2023-07-02T07:14:42;14.30;;;7.13;;
4933;SDS011;2482;49.154;8.254;2023-07-02T07:17:09;13.93;;;8.40;;
4933;SDS011;2482;49.154;8.254;2023-07-02T07:19:37;14.17;;;9.03;;
4933;SDS011;2482;49.154;8.254;2023-07-02T07:22:04;20.23;;;9.43;;
4933;SDS011;2482;49.154;8.254;2023-07-02T07:24:31;14.93;;;8.60;;
4933;SDS011;2482;49.154;8.254;2023-07-02T07:26:58;15.80;;;9.37;;
4933;SDS011;2482;49.154;8.254;2023-07-02T07:29:25;17.27;;;9.27;;
4933;SDS011;2482;49.154;8.254;2023-07-02T07:31:52;15.70;;;9.23;;
4933;SDS011;2482;49.154;8.254;2023-07-02T07:34:19;15.27;;;9.30;;
4933;SDS011;2482;49.154;8.254;2023-07-02T07:36:46;21.23;;;9.33;;
4933;SDS011;2482;49.154;8.254;2023-07-02T07:39:13;18.70;;;10.40;;
4933;SDS011;2482;49.154;8.254;2023-07-02T07:41:40;18.70;;;10.30;;
4933;SDS011;2482;49.154;8.254;2023-07-02T07:44:07;17.63;;;9.70;;
4933;SDS011;2482;49.154;8.254;2023-07-02T07:46:36;17.47;;;10.60;;
4933;SDS011;2482;49.154;8.254;2023-07-02T07:49:03;21.10;;;10.27;;
4933;SDS011;2482;49.154;8.254;2023-07-02T07:51:30;23.00;;;11.50;;
4933;SDS011;2482;49.154;8.254;2023-07-02T07:53:57;23.63;;;12.50;;
4933;SDS011;2482;49.154;8.254;2023-07-02T07:56:24;23.90;;;14.40;;
4933;SDS011;2482;49.154;8.254;2023-07-02T07:58:51;24.97;;;12.60;;
4933;SDS011;2482;49.154;8.254;2023-07-02T08:01:18;21.00;;;11.17;;
4933;SDS011;2482;49.154;8.254;2023-07-02T08:03:46;24.90;;;13.50;;
4933;SDS011;2482;49.154;8.254;2023-07-02T08:06:13;30.93;;;15.03;;
4933;SDS011;2482;49.154;8.254;2023-07-02T08:08:40;28.50;;;13.90;;
4933;SDS011;2482;49.154;8.254;2023-07-02T08:11:06;26.73;;;13.70;;
4933;SDS011;2482;49.154;8.254;2023-07-02T08:13:33;22.30;;;14.03;;
4933;SDS011;2482;49.154;8.254;2023-07-02T08:16:00;31.27;;;15.80;;
4933;SDS011;2482;49.154;8.254;2023-07-02T08:18:27;26.70;;;15.40;;
4933;SDS011;2482;49.154;8.254;2023-07-02T08:20:54;27.90;;;15.17;;
4933;SDS011;2482;49.154;8.254;2023-07-02T08:23:21;28.43;;;16.30;;
4933;SDS011;2482;49.154;8.254;2023-07-02T08:25:49;21.33;;;14.53;;
4933;SDS011;2482;49.154;8.254;2023-07-02T08:28:16;27.83;;;15.03;;
4933;SDS011;2482;49.154;8.254;2023-07-02T08:30:43;31.03;;;14.93;;
4933;SDS011;2482;49.154;8.254;2023-07-02T08:33:10;25.53;;;15.07;;
4933;SDS011;2482;49.154;8.254;2023-07-02T08:35:37;24.57;;;14.37;;
4933;SDS011;2482;49.154;8.254;2023-07-02T08:38:04;28.13;;;15.40;;
4933;SDS011;2482;49.154;8.254;2023-07-02T08:40:31;29.93;;;15.20;;
4933;SDS011;2482;49.154;8.254;2023-07-02T08:42:58;26.77;;;15.83;;
4933;SDS011;2482;49.154;8.254;2023-07-02T08:45:27;29.87;;;15.27;;
4933;SDS011;2482;49.154;8.254;2023-07-02T08:47:55;34.13;;;15.47;;
4933;SDS011;2482;49.154;8.254;2023-07-02T08:50:24;30.50;;;16.77;;
4933;SDS011;2482;49.154;8.254;2023-07-02T08:52:52;27.77;;;15.43;;
4933;SDS011;2482;49.154;8.254;2023-07-02T08:55:20;24.70;;;15.77;;
4933;SDS011;2482;49.154;8.254;2023-07-02T08:57:49;30.70;;;17.17;;
4933;SDS011;2482;49.154;8.254;2023-07-02T09:00:20;30.47;;;15.97;;
4933;SDS011;2482;49.154;8.254;2023-07-02T09:02:48;32.23;;;16.67;;
4933;SDS011;2482;49.154;8.254;2023-07-02T09:05:15;29.63;;;15.57;;
4933;SDS011;2482;49.154;8.254;2023-07-02T09:07:48;27.17;;;15.73;;
4933;SDS011;2482;49.154;8.254;2023-07-02T09:10:27;28.23;;;15.93;;
4933;SDS011;2482;49.154;8.254;2023-07-02T09:13:11;27.50;;;15.30;;
4933;SDS011;2482;49.154;8.254;2023-07-02T09:15:38;31.13;;;16.23;;
4933;SDS011;2482;49.154;8.254;2023-07-02T09:18:20;35.20;;;16.60;;
4933;SDS011;2482;49.154;8.254;2023-07-02T09:20:51;26.37;;;16.13;;
4933;SDS011;2482;49.154;8.254;2023-07-02T09:23:20;29.60;;;15.67;;
4933;SDS011;2482;49.154;8.254;2023-07-02T09:25:48;36.60;;;16.87;;
4933;SDS011;2482;49.154;8.254;2023-07-02T09:30:53;31.73;;;16.30;;
4933;SDS011;2482;49.154;8.254;2023-07-02T09:33:27;27.73;;;15.90;;
4933;SDS011;2482;49.154;8.254;2023-07-02T09:35:55;29.27;;;16.40;;
4933;SDS011;2482;49.154;8.254;2023-07-02T09:38:22;27.47;;;17.40;;
4933;SDS011;2482;49.154;8.254;2023-07-02T09:40:50;28.60;;;15.53;;
4933;SDS011;2482;49.154;8.254;2023-07-02T09:43:19;31.30;;;16.33;;
4933;SDS011;2482;49.154;8.254;2023-07-02T09:45:48;26.23;;;15.47;;
4933;SDS011;2482;49.154;8.254;2023-07-02T09:48:19;31.20;;;16.90;;
4933;SDS011;2482;49.154;8.254;2023-07-02T09:50:51;26.47;;;14.97;;
4933;SDS011;2482;49.154;8.254;2023-07-02T09:53:20;29.27;;;16.50;;
4933;SDS011;2482;49.154;8.254;2023-07-02T09:55:47;31.23;;;15.80;;
4933;SDS011;2482;49.154;8.254;2023-07-02T09:58:15;34.57;;;16.83;;
4933;SDS011;2482;49.154;8.254;2023-07-02T10:00:42;29.40;;;15.90;;
4933;SDS011;2482;49.154;8.254;2023-07-02T10:03:09;25.10;;;14.83;;
4933;SDS011;2482;49.154;8.254;2023-07-02T10:05:36;31.30;;;16.00;;
4933;SDS011;2482;49.154;8.254;2023-07-02T10:08:16;24.53;;;15.23;;
4933;SDS011;2482;49.154;8.254;2023-07-02T10:10:49;25.20;;;15.67;;
4933;SDS011;2482;49.154;8.254;2023-07-02T10:13:26;24.87;;;16.17;;
4933;SDS011;2482;49.154;8.254;2023-07-02T10:16:00;27.80;;;15.63;;
4933;SDS011;2482;49.154;8.254;2023-07-02T10:18:31;25.07;;;14.90;;
4933;SDS011;2482;49.154;8.254;2023-07-02T10:20:59;28.50;;;15.37;;
4933;SDS011;2482;49.154;8.254;2023-07-02T10:23:35;30.13;;;17.90;;
4933;SDS011;2482;49.154;8.254;2023-07-02T10:28:58;32.10;;;15.77;;
4933;SDS011;2482;49.154;8.254;2023-07-02T10:31:26;37.20;;;17.57;;
4933;SDS011;2482;49.154;8.254;2023-07-02T10:33:53;27.10;;;16.87;;
4933;SDS011;2482;49.154;8.254;2023-07-02T10:36:20;28.70;;;15.83;;
4933;SDS011;2482;49.154;8.254;2023-07-02T10:38:50;32.20;;;16.00;;
4933;SDS011;2482;49.154;8.254;2023-07-02T10:41:25;32.90;;;15.80;;
4933;SDS011;2482;49.154;8.254;2023-07-02T10:46:52;27.30;;;15.20;;
4933;SDS011;2482;49.154;8.254;2023-07-02T10:49:19;27.80;;;14.83;;
4933;SDS011;2482;49.154;8.254;2023-07-02T10:51:56;25.60;;;16.30;;
4933;SDS011;2482;49.154;8.254;2023-07-02T10:54:38;26.10;;;15.93;;
4933;SDS011;2482;49.154;8.254;2023-07-02T10:57:18;28.93;;;15.40;;
4933;SDS011;2482;49.154;8.254;2023-07-02T10:59:48;28.80;;;15.17;;
4933;SDS011;2482;49.154;8.254;2023-07-02T11:02:17;28.07;;;16.20;;
4933;SDS011;2482;49.154;8.254;2023-07-02T11:04:44;25.10;;;14.10;;
4933;SDS011;2482;49.154;8.254;2023-07-02T11:07:13;28.00;;;15.20;;
4933;SDS011;2482;49.154;8.254;2023-07-02T11:09:49;24.80;;;14.57;;
4933;SDS011;2482;49.154;8.254;2023-07-02T11:12:17;25.17;;;14.53;;
4933;SDS011;2482;49.154;8.254;2023-07-02T11:14:44;28.17;;;15.03;;
4933;SDS011;2482;49.154;8.254;2023-07-02T11:17:12;25.27;;;14.57;;
4933;SDS011;2482;49.154;8.254;2023-07-02T11:19:39;25.50;;;15.10;;
4933;SDS011;2482;49.154;8.254;2023-07-02T11:22:06;29.23;;;15.60;;
4933;SDS011;2482;49.154;8.254;2023-07-02T11:24:36;30.77;;;16.17;;
4933;SDS011;2482;49.154;8.254;2023-07-02T11:27:05;28.80;;;15.17;;
4933;SDS011;2482;49.154;8.254;2023-07-02T11:29:33;24.63;;;14.80;;
4933;SDS011;2482;49.154;8.254;2023-07-02T11:32:06;32.30;;;15.57;;
4933;SDS011;2482;49.154;8.254;2023-07-02T11:34:35;27.73;;;14.43;;
4933;SDS011;2482;49.154;8.254;2023-07-02T11:37:03;28.57;;;14.97;;
4933;SDS011;2482;49.154;8.254;2023-07-02T11:39:31;28.50;;;16.37;;
4933;SDS011;2482;49.154;8.254;2023-07-02T11:41:58;25.40;;;15.43;;
4933;SDS011;2482;49.154;8.254;2023-07-02T11:44:25;26.50;;;16.37;;
4933;SDS011;2482;49.154;8.254;2023-07-02T11:46:53;22.97;;;16.10;;
4933;SDS011;2482;49.154;8.254;2023-07-02T11:49:20;26.83;;;16.33;;
4933;SDS011;2482;49.154;8.254;2023-07-02T11:51:47;25.23;;;16.37;;
4933;SDS011;2482;49.154;8.254;2023-07-02T11:54:16;25.13;;;15.27;;
4933;SDS011;2482;49.154;8.254;2023-07-02T11:56:45;26.67;;;15.60;;
4933;SDS011;2482;49.154;8.254;2023-07-02T11:59:12;28.23;;;15.00;;
4933;SDS011;2482;49.154;8.254;2023-07-02T12:01:39;23.63;;;14.53;;
4933;SDS011;2482;49.154;8.254;2023-07-02T12:04:06;24.20;;;14.23;;
4933;SDS011;2482;49.154;8.254;2023-07-02T12:06:34;27.43;;;14.83;;
4933;SDS011;2482;49.154;8.254;2023-07-02T12:09:01;26.70;;;14.87;;
4933;SDS011;2482;49.154;8.254;2023-07-02T12:11:28;22.87;;;15.13;;
4933;SDS011;2482;49.154;8.254;2023-07-02T12:13:55;23.87;;;15.70;;
4933;SDS011;2482;49.154;8.254;2023-07-02T12:16:22;28.03;;;13.50;;
4933;SDS011;2482;49.154;8.254;2023-07-02T12:18:49;27.90;;;15.63;;
4933;SDS011;2482;49.154;8.254;2023-07-02T12:21:16;25.60;;;15.10;;
4933;SDS011;2482;49.154;8.254;2023-07-02T12:23:44;26.50;;;16.60;;
4933;SDS011;2482;49.154;8.254;2023-07-02T12:26:11;32.60;;;15.77;;
4933;SDS011;2482;49.154;8.254;2023-07-02T12:28:38;23.40;;;14.50;;
4933;SDS011;2482;49.154;8.254;2023-07-02T12:31:05;29.37;;;16.53;;
4933;SDS011;2482;49.154;8.254;2023-07-02T12:33:33;24.00;;;15.00;;
4933;SDS011;2482;49.154;8.254;2023-07-02T12:36:00;22.93;;;15.00;;
4933;SDS011;2482;49.154;8.254;2023-07-02T12:38:27;25.40;;;14.37;;
4933;SDS011;2482;49.154;8.254;2023-07-02T12:40:54;27.20;;;15.27;;
4933;SDS011;2482;49.154;8.254;2023-07-02T12:43:21;25.73;;;15.60;;
4933;SDS011;2482;49.154;8.254;2023-07-02T12:45:48;23.00;;;14.57;;
4933;SDS011;2482;49.154;8.254;2023-07-02T12:48:16;26.90;;;16.37;;
4933;SDS011;2482;49.154;8.254;2023-07-02T12:50:52;27.17;;;14.73;;
4933;SDS011;2482;49.154;8.254;2023-07-02T12:53:22;26.40;;;14.80;;
4933;SDS011;2482;49.154;8.254;2023-07-02T12:55:50;23.00;;;14.17;;
4933;SDS011;2482;49.154;8.254;2023-07-02T12:58:17;29.10;;;15.63;;
4933;SDS011;2482;49.154;8.254;2023-07-02T13:00:44;28.97;;;16.50;;
4933;SDS011;2482;49.154;8.254;2023-07-02T13:03:13;29.33;;;15.47;;
4933;SDS011;2482;49.154;8.254;2023-07-02T13:05:43;25.03;;;15.70;;
4933;SDS011;2482;49.154;8.254;2023-07-02T13:08:10;23.13;;;15.00;;
4933;SDS011;2482;49.154;8.254;2023-07-02T13:10:37;25.50;;;14.10;;
4933;SDS011;2482;49.154;8.254;2023-07-02T13:13:08;24.13;;;14.53;;
4933;SDS011;2482;49.154;8.254;2023-07-02T13:15:48;27.47;;;14.77;;
4933;SDS011;2482;49.154;8.254;2023-07-02T13:18:16;21.20;;;15.50;;
4933;SDS011;2482;49.154;8.254;2023-07-02T13:20:43;23.00;;;14.47;;
4933;SDS011;2482;49.154;8.254;2023-07-02T13:23:10;24.20;;;14.20;;
4933;SDS011;2482;49.154;8.254;2023-07-02T13:25:37;26.20;;;14.60;;
4933;SDS011;2482;49.154;8.254;2023-07-02T13:28:04;21.43;;;14.20;;
4933;SDS011;2482;49.154;8.254;2023-07-02T13:30:31;23.10;;;15.30;;
4933;SDS011;2482;49.154;8.254;2023-07-02T13:32:58;24.60;;;15.63;;
4933;SDS011;2482;49.154;8.254;2023-07-02T13:35:26;23.70;;;15.70;;
4933;SDS011;2482;49.154;8.254;2023-07-02T13:37:53;22.87;;;14.13;;
4933;SDS011;2482;49.154;8.254;2023-07-02T13:40:20;24.57;;;15.10;;
4933;SDS011;2482;49.154;8.254;2023-07-02T13:42:47;26.53;;;15.97;;
4933;SDS011;2482;49.154;8.254;2023-07-02T13:45:14;22.80;;;14.03;;
4933;SDS011;2482;49.154;8.254;2023-07-02T13:47:41;21.20;;;13.10;;
4933;SDS011;2482;49.154;8.254;2023-07-02T13:50:09;21.73;;;14.60;;
4933;SDS011;2482;49.154;8.254;2023-07-02T13:52:36;22.03;;;14.30;;
4933;SDS011;2482;49.154;8.254;2023-07-02T13:55:03;25.20;;;14.10;;
4933;SDS011;2482;49.154;8.254;2023-07-02T13:57:31;25.97;;;15.00;;
4933;SDS011;2482;49.154;8.254;2023-07-02T13:59:58;21.77;;;14.73;;
4933;SDS011;2482;49.154;8.254;2023-07-02T14:02:25;26.07;;;15.23;;
4933;SDS011;2482;49.154;8.254;2023-07-02T14:04:52;21.40;;;13.70;;
4933;SDS011;2482;49.154;8.254;2023-07-02T14:07:20;24.40;;;15.00;;
4933;SDS011;2482;49.154;8.254;2023-07-02T14:09:47;21.37;;;14.13;;
4933;SDS011;2482;49.154;8.254;2023-07-02T14:12:14;25.47;;;14.90;;
4933;SDS011;2482;49.154;8.254;2023-07-02T14:14:41;22.93;;;14.77;;
4933;SDS011;2482;49.154;8.254;2023-07-02T14:17:08;26.60;;;15.67;;
4933;SDS011;2482;49.154;8.254;2023-07-02T14:19:35;23.77;;;14.53;;
4933;SDS011;2482;49.154;8.254;2023-07-02T14:22:02;29.37;;;14.50;;
4933;SDS011;2482;49.154;8.254;2023-07-02T14:24:30;26.67;;;15.37;;
4933;SDS011;2482;49.154;8.254;2023-07-02T14:26:57;24.53;;;14.73;;
4933;SDS011;2482;49.154;8.254;2023-07-02T14:29:24;22.10;;;13.87;;
4933;SDS011;2482;49.154;8.254;2023-07-02T14:31:53;24.03;;;14.33;;
4933;SDS011;2482;49.154;8.254;2023-07-02T14:34:20;21.70;;;13.13;;
4933;SDS011;2482;49.154;8.254;2023-07-02T14:36:48;24.17;;;13.87;;
4933;SDS011;2482;49.154;8.254;2023-07-02T14:39:15;20.63;;;14.37;;
4933;SDS011;2482;49.154;8.254;2023-07-02T14:41:42;22.87;;;14.37;;
4933;SDS011;2482;49.154;8.254;2023-07-02T14:44:09;27.30;;;14.50;;
4933;SDS011;2482;49.154;8.254;2023-07-02T14:46:36;23.30;;;14.50;;
4933;SDS011;2482;49.154;8.254;2023-07-02T14:49:03;22.87;;;14.33;;
4933;SDS011;2482;49.154;8.254;2023-07-02T14:51:30;29.10;;;15.00;;
4933;SDS011;2482;49.154;8.254;2023-07-02T14:53:58;21.40;;;12.80;;
4933;SDS011;2482;49.154;8.254;2023-07-02T14:56:27;23.60;;;14.27;;
4933;SDS011;2482;49.154;8.254;2023-07-02T14:58:54;21.50;;;13.50;;
4933;SDS011;2482;49.154;8.254;2023-07-02T15:01:22;22.30;;;13.43;;
4933;SDS011;2482;49.154;8.254;2023-07-02T15:03:49;20.73;;;13.70;;
4933;SDS011;2482;49.154;8.254;2023-07-02T15:06:17;24.00;;;13.63;;
4933;SDS011;2482;49.154;8.254;2023-07-02T15:08:44;22.73;;;13.50;;
4933;SDS011;2482;49.154;8.254;2023-07-02T15:11:12;23.13;;;13.63;;
4933;SDS011;2482;49.154;8.254;2023-07-02T15:13:41;23.67;;;12.63;;
4933;SDS011;2482;49.154;8.254;2023-07-02T15:16:09;22.03;;;12.97;;